aviador You're here:

KEUF Decoded Metar

in _UNIDENTIFIED
Report Time2017-08-18 15:58:00
UTC Time2017-08-18 16:29:59
Flight Rules vfr VFR
WindVRB at 05 kt
Visibility9999 m
Phenomena:N/A
Clouds:Few 029 Hf
Expected CloudBase > 3,200 ft AGL from Temp-Dew spread
CeilingNone
Temp32°C (ISA +18)
Dew Point24°C (63% RH)
Heat Index38.0°C
QNH1016 hPa
Density Alt2,582 ft
Elevation285 ft
Report Wrong Elevation
Raw Report
METAR KEUF 181558Z AUTO VRB05KT 10SM FEW029 32/24 A3001 RMK AO2 SLP157
T03170244=

Extra information for KEUF:More info

Metar Taf Metar & Taf Last 4 Metars F.Rules Stats Wind Profile Meteogram Temp Stats Metar ALERT Operation Metar Decoded Social comments